OISA  Abadeh  Airport

Abadeh, Iran

Add Bookmark
ICAO OISA
Type Airport
Status Operational
Latitude
31° 10' 0" N
31.166668
Longitude
52° 40' 0" E
52.666668
Local (DST + 5) UTC (GMT + 4)
Sep 5, 2015 08:10 Sep 5, 2015 03:40
Sunrise-Sunset Local UTC
Begin Civil Twilight 06:11 01:41
Sunrise 06:36 02:06
Sunset 07:19 14:49
End Civil Twilight 07:44 15:14
VFR
VFR
MVFR
MVFR
IFR
IFR
LIFR
LIFR
Unknown
Unavailable

Current Weather

METAR Observed VFR
OISA 042150Z 34004KT CAVOK 17/M04 Q1025 Fri, Sep 4, 2015 @ 21:50 UTC
(5 Hours, 50 Minutes ago)
Visual Flight Rules
Wind Visibility Conditions
340° at 4 knots (7 kph) 10 km or more
  • No significant weather
Temperatures Readings Precipitation
Current Temp
17°C
63°F
Dewpoint
-4°C
25°F
Humidity 24%
Altimeter 30.27" Hg
Sea Level Pressure 1,025 mb
Field Elevation
2,004 m
6,575 ft
None Recorded
-
-

CheckWX.com is intended as a tool to help pilots better visualize weather data. It is not intended as a substitute for an official weather briefing obtained from a Flight Service Station. CheckWX.com does not meet the FAA requirements for an official pre-flight weather briefing. Therefore, it's important that pilots still call and obtain an official FSS pre-flight weather briefing.

© 2007-2015 CheckWX.com
03:40:27 UTC